Time;durP1;ratioP1;P1;durP2;ratioP2;P2;SDS_P1;SDS_P2;PMS_P1;PMS_P2;Temp;Humidity;BMP_temperature;BMP_pressure;BME280_temperature;BME280_humidity;BME280_pressure;Samples;Min_cycle;Max_cycle;Signal;HPM_P1;HPM_P2
2023/01/25 00:01:58;;;;;;;27.77;20.95;;;3.80;99.50;;;;;;5035346;28;20021;-72
2023/01/25 00:04:24;;;;;;;30.83;21.50;;;3.70;99.60;;;;;;5033416;28;20029;-72
2023/01/25 00:06:50;;;;;;;31.23;21.83;;;3.80;99.60;;;;;;5031749;28;20430;-72
2023/01/25 00:09:16;;;;;;;30.00;22.08;;;3.70;99.20;;;;;;5015160;28;20037;-72
2023/01/25 00:11:43;;;;;;;29.40;21.30;;;3.50;99.70;;;;;;5031483;28;20103;-72
2023/01/25 00:14:10;;;;;;;32.50;23.00;;;3.30;99.90;;;;;;5031831;28;20049;-72
2023/01/25 00:16:36;;;;;;;31.20;22.05;;;3.30;99.90;;;;;;5013873;28;20042;-72
2023/01/25 00:19:02;;;;;;;31.23;21.55;;;3.40;99.90;;;;;;5032483;28;20033;-72
2023/01/25 00:21:27;;;;;;;29.65;22.20;;;3.50;99.90;;;;;;5031005;28;20033;-72
2023/01/25 00:23:53;;;;;;;30.55;22.00;;;3.60;99.90;;;;;;5032466;28;20058;-71
2023/01/25 00:26:19;;;;;;;29.48;20.67;;;3.60;99.90;;;;;;5030845;28;20092;-72
2023/01/25 00:28:53;;;;;;;29.90;20.63;;;3.50;99.90;;;;;;5030928;28;20034;-71
2023/01/25 00:31:26;;;;;;;;;;;3.70;99.90;;;;;;5032336;28;20040;-72
2023/01/25 00:33:59;;;;;;;28.55;19.85;;;3.80;99.90;;;;;;5032087;28;19905;-72
2023/01/25 00:36:37;;;;;;;27.45;20.40;;;3.90;99.80;;;;;;5031022;28;20033;-72
2023/01/25 00:39:04;;;;;;;29.55;21.40;;;3.80;99.70;;;;;;5030627;28;20096;-72
2023/01/25 00:41:30;;;;;;;27.80;20.13;;;3.70;99.80;;;;;;5031692;28;20068;-72
2023/01/25 00:43:56;;;;;;;28.77;20.83;;;3.70;99.90;;;;;;5032137;28;20030;-72
2023/01/25 00:46:22;;;;;;;30.38;21.33;;;3.80;99.90;;;;;;5031475;28;20045;-72
2023/01/25 00:48:48;;;;;;;27.73;20.98;;;3.70;99.80;;;;;;5030538;28;20029;-72
2023/01/25 00:51:14;;;;;;;32.78;21.48;;;3.70;99.90;;;;;;5031836;28;20034;-72
2023/01/25 00:53:40;;;;;;;25.58;19.17;;;3.70;99.80;;;;;;5032081;28;20087;-71
2023/01/25 00:56:06;;;;;;;26.10;19.92;;;3.70;99.70;;;;;;4991923;28;1114711;-72
2023/01/25 00:58:32;;;;;;;28.27;20.90;;;3.80;99.50;;;;;;5031124;28;20489;-72
2023/01/25 01:00:58;;;;;;;27.33;20.75;;;3.80;99.40;;;;;;5014955;28;20112;-72
2023/01/25 01:03:23;;;;;;;32.42;22.30;;;3.90;99.30;;;;;;5031696;28;20107;-72
2023/01/25 01:06:01;;;;;;;26.02;19.90;;;3.70;99.00;;;;;;5032543;28;20030;-72
2023/01/25 01:08:26;;;;;;;25.55;19.10;;;3.60;99.40;;;;;;5032591;28;20109;-72
2023/01/25 01:11:00;;;;;;;24.65;18.60;;;3.70;99.50;;;;;;5032246;28;20188;-72
2023/01/25 01:13:27;;;;;;;23.17;18.02;;;3.90;99.50;;;;;;5033042;28;20052;-72
2023/01/25 01:15:53;;;;;;;26.50;19.67;;;3.90;99.30;;;;;;5032806;28;20034;-72
2023/01/25 01:18:18;;;;;;;26.17;20.65;;;4.00;99.10;;;;;;5031358;28;20040;-72
2023/01/25 01:20:51;;;;;;;25.75;19.15;;;4.10;99.10;;;;;;5014801;28;20033;-72
2023/01/25 01:23:17;;;;;;;29.85;21.63;;;4.20;99.00;;;;;;5032499;28;20101;-72
2023/01/25 01:25:42;;;;;;;30.25;22.33;;;4.20;98.80;;;;;;5031178;28;20125;-71
2023/01/25 01:28:08;;;;;;;27.00;19.83;;;4.20;98.60;;;;;;5034631;28;20051;-72
2023/01/25 01:30:35;;;;;;;26.55;20.23;;;4.20;98.80;;;;;;5018101;28;20076;-72
2023/01/25 01:33:01;;;;;;;26.10;19.67;;;4.20;98.80;;;;;;5018989;28;20030;-72
2023/01/25 01:35:28;;;;;;;26.73;19.70;;;4.30;98.80;;;;;;5037072;28;20488;-72
2023/01/25 01:37:53;;;;;;;25.35;18.90;;;4.30;98.50;;;;;;5050493;28;20032;-71
2023/01/25 01:40:19;;;;;;;27.05;20.75;;;4.40;98.40;;;;;;5045772;28;20034;-72
2023/01/25 01:42:59;;;;;;;23.52;18.08;;;4.40;98.10;;;;;;5051656;28;20031;-72
2023/01/25 01:46:04;;;;;;;24.52;18.50;;;4.30;98.20;;;;;;5036610;28;20037;-72
2023/01/25 01:48:36;;;;;;;24.80;18.85;;;4.40;98.20;;;;;;5013959;28;20068;-73
2023/01/25 01:51:12;;;;;;;25.30;19.17;;;4.50;98.00;;;;;;5032767;28;20041;-72
2023/01/25 01:53:41;;;;;;;27.38;20.70;;;4.50;97.80;;;;;;5035026;28;20022;-72
2023/01/25 01:56:11;;;;;;;28.50;20.25;;;4.50;97.50;;;;;;5035383;28;20061;-72
2023/01/25 01:58:37;;;;;;;24.67;19.30;;;4.40;97.50;;;;;;5035788;28;20091;-72
2023/01/25 02:01:03;;;;;;;30.65;20.70;;;4.40;97.60;;;;;;5034341;28;20033;-72
2023/01/25 02:03:29;;;;;;;28.92;20.58;;;4.40;97.70;;;;;;5035329;28;20097;-72
2023/01/25 02:06:12;;;;;;;28.25;21.50;;;4.40;97.70;;;;;;5035184;28;20470;-72
2023/01/25 02:08:39;;;;;;;28.15;21.35;;;4.30;97.80;;;;;;5034009;28;20057;-71
2023/01/25 02:11:06;;;;;;;26.45;20.42;;;4.20;98.00;;;;;;5034384;28;20442;-72
2023/01/25 02:13:34;;;;;;;26.00;19.42;;;4.30;98.00;;;;;;5033573;28;20034;-72
2023/01/25 02:16:01;;;;;;;29.88;21.90;;;4.40;98.00;;;;;;5033776;28;20036;-72
2023/01/25 02:18:26;;;;;;;25.52;20.05;;;4.30;97.80;;;;;;5033861;28;20101;-72
2023/01/25 02:20:55;;;;;;;27.58;21.35;;;4.40;97.80;;;;;;5034981;28;20121;-72
2023/01/25 02:23:35;;;;;;;27.45;20.83;;;4.40;97.70;;;;;;5034970;28;20548;-72
2023/01/25 02:26:03;;;;;;;29.40;21.67;;;4.40;97.70;;;;;;5034857;28;20029;-72
2023/01/25 02:28:38;;;;;;;27.77;21.45;;;4.40;97.60;;;;;;5034243;28;20362;-72
2023/01/25 02:31:04;;;;;;;28.05;21.60;;;4.30;97.50;;;;;;5033236;28;20585;-72
2023/01/25 02:33:30;;;;;;;28.98;21.17;;;4.30;97.50;;;;;;5034470;28;20116;-72
2023/01/25 02:36:14;;;;;;;26.48;20.33;;;4.30;97.50;;;;;;5034980;28;20044;-71
2023/01/25 02:39:08;;;;;;;25.20;19.02;;;4.30;97.50;;;;;;5033680;28;20041;-71
2023/01/25 02:41:38;;;;;;;28.02;20.77;;;4.30;97.30;;;;;;5031630;28;20037;-72
2023/01/25 02:44:25;;;;;;;27.30;20.55;;;4.20;97.10;;;;;;5034467;28;20103;-72
2023/01/25 02:46:52;;;;;;;26.92;20.85;;;4.20;97.10;;;;;;5034284;28;20064;-72
2023/01/25 02:49:18;;;;;;;27.67;20.92;;;4.10;97.00;;;;;;5034513;28;20462;-72
2023/01/25 02:51:46;;;;;;;26.73;20.55;;;4.00;97.10;;;;;;5034396;28;20033;-71
2023/01/25 02:54:13;;;;;;;27.85;21.13;;;4.00;97.20;;;;;;5034441;28;20029;-72
2023/01/25 02:56:39;;;;;;;27.92;21.20;;;4.00;97.30;;;;;;5032921;28;20053;-71
2023/01/25 02:59:06;;;;;;;28.98;21.98;;;4.00;97.40;;;;;;5034284;28;20091;-72
2023/01/25 03:01:34;;;;;;;29.20;21.35;;;4.00;97.30;;;;;;5032935;28;20331;-72
2023/01/25 03:03:59;;;;;;;28.75;21.55;;;4.00;97.40;;;;;;5032816;28;20617;-72
2023/01/25 03:06:25;;;;;;;29.60;21.98;;;4.00;97.40;;;;;;5018308;28;20040;-72
2023/01/25 03:08:50;;;;;;;30.00;23.20;;;4.00;97.40;;;;;;5032696;28;20037;-72
2023/01/25 03:11:16;;;;;;;27.08;21.48;;;4.00;97.50;;;;;;5034221;28;20063;-72
2023/01/25 03:13:42;;;;;;;29.98;23.05;;;3.90;97.70;;;;;;5032738;28;20026;-72
2023/01/25 03:16:10;;;;;;;31.17;22.73;;;3.90;97.70;;;;;;5032723;28;20034;-71
2023/01/25 03:18:37;;;;;;;28.92;22.40;;;3.80;97.80;;;;;;5033784;28;20099;-72
2023/01/25 03:21:08;;;;;;;28.15;21.15;;;3.90;98.00;;;;;;5032965;28;20061;-72
2023/01/25 03:23:34;;;;;;;29.40;22.63;;;3.90;98.00;;;;;;5037112;28;20021;-72
2023/01/25 03:26:06;;;;;;;27.52;20.48;;;4.00;97.90;;;;;;5042507;28;20045;-71
2023/01/25 03:28:32;;;;;;;27.73;21.20;;;4.00;98.00;;;;;;5040340;28;20036;-72
2023/01/25 03:30:58;;;;;;;29.65;22.55;;;4.10;97.90;;;;;;5034217;28;20026;-72
2023/01/25 03:33:24;;;;;;;29.40;23.17;;;4.10;97.70;;;;;;5033971;28;20026;-71
2023/01/25 03:35:53;;;;;;;30.52;23.63;;;4.10;97.70;;;;;;5016477;28;20423;-72
2023/01/25 03:38:19;;;;;;;28.95;23.67;;;4.00;97.50;;;;;;5033919;28;20086;-73
2023/01/25 03:40:45;;;;;;;30.00;23.73;;;3.60;98.00;;;;;;5033299;28;20033;-71
2023/01/25 03:43:11;;;;;;;29.50;23.67;;;3.40;98.50;;;;;;5015867;28;20164;-72
2023/01/25 03:45:37;;;;;;;31.40;23.85;;;3.30;98.90;;;;;;5031794;28;20496;-72
2023/01/25 03:48:03;;;;;;;29.92;22.10;;;3.40;99.00;;;;;;5033409;28;20393;-72
2023/01/25 03:50:29;;;;;;;30.00;22.08;;;3.40;98.90;;;;;;5032103;28;20107;-72
2023/01/25 03:53:30;;;;;;;30.20;23.08;;;3.60;98.80;;;;;;5015263;28;20068;-73
2023/01/25 03:55:58;;;;;;;29.40;22.23;;;3.60;98.70;;;;;;5030026;28;20041;-73
2023/01/25 03:58:24;;;;;;;28.77;21.27;;;3.70;98.60;;;;;;5032548;28;20029;-72
2023/01/25 04:00:50;;;;;;;32.70;24.30;;;3.80;98.40;;;;;;5033244;28;20108;-72
2023/01/25 04:03:18;;;;;;;29.50;22.02;;;3.80;98.20;;;;;;5015412;28;20110;-72
2023/01/25 04:05:44;;;;;;;31.65;23.65;;;3.80;98.00;;;;;;5031652;28;20041;-73
2023/01/25 04:08:09;;;;;;;28.88;21.80;;;3.90;97.90;;;;;;5031664;28;20171;-72
2023/01/25 04:10:35;;;;;;;29.02;22.17;;;3.90;97.90;;;;;;5032046;28;20174;-72
2023/01/25 04:13:01;;;;;;;30.98;24.25;;;3.90;97.80;;;;;;5015398;28;20036;-72
2023/01/25 04:15:26;;;;;;;28.25;21.70;;;3.90;97.80;;;;;;5032774;28;20488;-72
2023/01/25 04:17:52;;;;;;;26.67;20.63;;;3.90;98.00;;;;;;5015009;28;20029;-72
2023/01/25 04:20:17;;;;;;;26.77;20.58;;;3.90;98.00;;;;;;5032562;28;20036;-73
2023/01/25 04:22:43;;;;;;;26.13;20.83;;;4.00;97.90;;;;;;5031840;28;20168;-71
2023/01/25 04:25:09;;;;;;;27.67;20.23;;;4.10;97.70;;;;;;5015316;28;20080;-72
2023/01/25 04:27:34;;;;;;;27.08;21.73;;;4.10;97.50;;;;;;5032535;28;20447;-72
2023/01/25 04:30:00;;;;;;;27.40;21.05;;;4.00;97.30;;;;;;5031689;28;20379;-73
2023/01/25 04:32:26;;;;;;;28.58;21.83;;;4.00;97.30;;;;;;5032815;28;20036;-72
2023/01/25 04:34:51;;;;;;;29.80;23.40;;;4.10;97.40;;;;;;5033299;28;20037;-72
2023/01/25 04:37:17;;;;;;;28.10;22.40;;;4.00;97.20;;;;;;5032072;28;20036;-73
2023/01/25 04:39:42;;;;;;;30.92;24.08;;;3.90;97.30;;;;;;5033028;28;20044;-72
2023/01/25 04:42:08;;;;;;;28.67;23.27;;;3.70;97.50;;;;;;5032841;28;20056;-72
2023/01/25 04:44:34;;;;;;;28.98;23.02;;;3.50;97.60;;;;;;5014864;28;20474;-72
2023/01/25 04:46:59;;;;;;;28.13;21.88;;;3.50;98.10;;;;;;5032392;28;20041;-72
2023/01/25 04:49:25;;;;;;;29.40;23.15;;;3.50;98.20;;;;;;5032744;28;20025;-72
2023/01/25 04:51:50;;;;;;;32.55;25.02;;;3.60;98.10;;;;;;5033092;28;20152;-72
2023/01/25 04:54:16;;;;;;;32.58;24.13;;;3.70;98.10;;;;;;5031360;28;20036;-72
2023/01/25 04:56:41;;;;;;;30.60;22.90;;;3.70;98.00;;;;;;5031083;28;20050;-72
2023/01/25 04:59:07;;;;;;;30.17;23.38;;;3.80;98.00;;;;;;5032747;28;20496;-72
2023/01/25 05:01:33;;;;;;;32.00;23.30;;;3.90;98.00;;;;;;5032615;28;20026;-72
2023/01/25 05:03:58;;;;;;;32.40;25.23;;;3.90;97.90;;;;;;5018417;28;20049;-73
2023/01/25 05:06:24;;;;;;;28.90;22.63;;;4.00;97.80;;;;;;5036634;28;20045;-71
2023/01/25 05:08:50;;;;;;;32.55;24.77;;;4.00;97.80;;;;;;5036969;28;20029;-72
2023/01/25 05:11:15;;;;;;;33.63;25.40;;;4.00;97.70;;;;;;5039116;28;20029;-72
2023/01/25 05:13:41;;;;;;;33.28;25.30;;;4.00;97.60;;;;;;5037602;28;20029;-73
2023/01/25 05:16:07;;;;;;;33.67;25.20;;;4.10;97.60;;;;;;5036919;28;20037;-72
2023/01/25 05:18:32;;;;;;;32.40;25.35;;;4.10;97.60;;;;;;5018979;28;20037;-72
2023/01/25 05:20:58;;;;;;;35.78;26.15;;;4.10;97.50;;;;;;5034964;28;20537;-72
2023/01/25 05:23:23;;;;;;;34.88;26.27;;;4.00;97.50;;;;;;5035042;28;20488;-72
2023/01/25 05:28:33;;;;;;;37.85;27.08;;;4.00;97.50;;;;;;5036017;28;20045;-73
2023/01/25 05:31:03;;;;;;;36.22;27.25;;;4.00;97.50;;;;;;5035148;28;20458;-72
2023/01/25 05:33:28;;;;;;;37.33;28.80;;;3.90;97.30;;;;;;5034729;28;20489;-72
2023/01/25 05:35:55;;;;;;;37.85;28.27;;;3.80;97.30;;;;;;5035563;28;20108;-72
2023/01/25 05:38:20;;;;;;;40.03;30.00;;;3.70;97.30;;;;;;5035784;28;20034;-72
2023/01/25 05:40:46;;;;;;;37.05;26.98;;;3.60;97.50;;;;;;5018553;28;20116;-71
2023/01/25 05:43:12;;;;;;;35.70;26.88;;;3.50;97.80;;;;;;5017868;28;20533;-72
2023/01/25 05:45:39;;;;;;;38.13;28.52;;;3.60;97.80;;;;;;5035932;28;20069;-71
2023/01/25 05:48:05;;;;;;;39.50;28.75;;;3.60;97.70;;;;;;5034402;28;20080;-72
2023/01/25 05:50:30;;;;;;;37.47;27.60;;;3.60;97.80;;;;;;5035528;28;20029;-72
2023/01/25 05:52:56;;;;;;;36.80;27.00;;;3.60;97.90;;;;;;5035178;28;20030;-72
2023/01/25 05:55:21;;;;;;;38.33;28.25;;;3.60;97.80;;;;;;5035433;28;20045;-72
2023/01/25 05:57:47;;;;;;;35.95;27.02;;;3.50;97.70;;;;;;5017551;28;20060;-72
2023/01/25 06:00:13;;;;;;;36.88;26.58;;;3.50;97.80;;;;;;5034018;28;20030;-72
2023/01/25 06:02:39;;;;;;;38.88;28.20;;;3.60;98.00;;;;;;5035294;28;20029;-72
2023/01/25 06:05:05;;;;;;;36.97;27.10;;;3.60;97.90;;;;;;5034501;28;20450;-72
2023/01/25 06:07:35;;;;;;;34.85;26.15;;;3.70;98.00;;;;;;5034048;28;20029;-71
2023/01/25 06:10:02;;;;;;;40.47;29.33;;;3.70;98.00;;;;;;5035120;28;20116;-72
2023/01/25 06:12:27;;;;;;;38.42;28.20;;;3.60;97.80;;;;;;5034149;28;20141;-72
2023/01/25 06:14:53;;;;;;;43.17;30.60;;;3.60;98.20;;;;;;5034328;28;20068;-72
2023/01/25 06:17:18;;;;;;;39.70;29.25;;;3.60;98.00;;;;;;5033710;28;20179;-72
2023/01/25 06:19:44;;;;;;;40.33;28.73;;;3.60;98.20;;;;;;5034661;28;20041;-72
2023/01/25 06:22:10;;;;;;;38.95;28.92;;;3.60;98.10;;;;;;5035144;28;20061;-71
2023/01/25 06:24:35;;;;;;;38.13;28.33;;;3.60;98.00;;;;;;5034851;28;20029;-72
2023/01/25 06:27:01;;;;;;;39.58;28.70;;;3.60;98.00;;;;;;5034742;28;20073;-72
2023/01/25 06:29:27;;;;;;;37.63;27.27;;;3.60;98.00;;;;;;5033283;28;20088;-72
2023/01/25 06:31:54;;;;;;;36.63;27.52;;;3.70;98.10;;;;;;5035262;28;20033;-71
2023/01/25 06:34:20;;;;;;;39.47;28.33;;;3.80;98.10;;;;;;5035032;28;20462;-72
2023/01/25 06:36:47;;;;;;;39.25;28.25;;;3.80;97.90;;;;;;5033848;28;20036;-71
2023/01/25 06:39:13;;;;;;;41.05;29.40;;;3.80;97.80;;;;;;5033198;28;20092;-72
2023/01/25 06:41:39;;;;;;;39.63;29.10;;;3.80;97.80;;;;;;5034586;28;20025;-72
2023/01/25 06:44:04;;;;;;;41.03;30.15;;;3.70;97.80;;;;;;5000792;28;20386;-72
2023/01/25 06:46:33;;;;;;;40.35;29.20;;;3.70;98.00;;;;;;5016783;28;20041;-72
2023/01/25 06:48:59;;;;;;;39.05;28.08;;;3.60;98.20;;;;;;5035166;28;20069;-73
2023/01/25 06:51:25;;;;;;;38.42;28.30;;;3.70;98.30;;;;;;5017955;28;20057;-72
2023/01/25 06:53:51;;;;;;;43.38;30.13;;;3.70;98.20;;;;;;5021150;28;20379;-72
2023/01/25 06:56:21;;;;;;;39.88;29.30;;;3.70;98.10;;;;;;5034445;28;20046;-73
2023/01/25 06:58:47;;;;;;;42.67;30.30;;;3.70;98.20;;;;;;5047464;28;20025;-72
2023/01/25 07:01:18;;;;;;;39.10;29.88;;;3.70;98.20;;;;;;5043035;28;20028;-74
2023/01/25 07:03:47;;;;;;;41.70;29.98;;;3.70;98.30;;;;;;5039400;28;20095;-73
2023/01/25 07:06:13;;;;;;;41.60;30.52;;;3.70;98.30;;;;;;5018845;28;20040;-73
2023/01/25 07:08:39;;;;;;;44.33;31.80;;;3.70;98.20;;;;;;5036305;28;20038;-73
2023/01/25 07:11:08;;;;;;;42.47;30.63;;;3.70;98.20;;;;;;5035174;28;20374;-72
2023/01/25 07:13:35;;;;;;;42.38;30.75;;;3.70;98.40;;;;;;5034804;28;20039;-73
2023/01/25 07:16:05;;;;;;;44.22;31.25;;;3.60;98.40;;;;;;5034231;28;20130;-73
2023/01/25 07:18:32;;;;;;;43.58;31.05;;;3.60;98.50;;;;;;5033925;28;20532;-72
2023/01/25 07:21:12;;;;;;;46.55;32.90;;;3.70;98.40;;;;;;5033608;28;20038;-73
2023/01/25 07:23:37;;;;;;;44.10;31.13;;;3.60;98.30;;;;;;5032667;28;20022;-72
2023/01/25 07:26:04;;;;;;;46.55;32.72;;;3.50;98.40;;;;;;5034078;28;20434;-73
2023/01/25 07:28:31;;;;;;;48.05;33.90;;;3.50;98.40;;;;;;5033347;28;20040;-73
2023/01/25 07:31:04;;;;;;;42.95;30.30;;;3.40;98.50;;;;;;5033711;28;20032;-72
2023/01/25 07:33:31;;;;;;;46.38;33.30;;;3.30;98.60;;;;;;5032405;28;20355;-72
2023/01/25 07:36:06;;;;;;;45.38;31.10;;;3.30;98.60;;;;;;5032210;28;20112;-71
2023/01/25 07:38:32;;;;;;;45.83;31.75;;;3.20;98.90;;;;;;5033451;28;20025;-71
2023/01/25 07:40:58;;;;;;;45.22;31.30;;;3.30;98.90;;;;;;5032514;28;20033;-71
2023/01/25 07:43:24;;;;;;;43.25;31.58;;;3.20;98.80;;;;;;5033661;28;20030;-70
2023/01/25 07:45:50;;;;;;;53.67;35.08;;;3.20;98.70;;;;;;5033162;28;20607;-70
2023/01/25 07:48:17;;;;;;;46.38;32.10;;;3.10;98.70;;;;;;5032301;28;20025;-71
2023/01/25 07:50:48;;;;;;;43.63;31.08;;;3.10;98.80;;;;;;5033337;28;20029;-71
2023/01/25 07:53:15;;;;;;;46.17;32.17;;;3.10;98.80;;;;;;5032085;28;20035;-71
2023/01/25 07:55:40;;;;;;;46.15;31.45;;;3.10;99.00;;;;;;5032125;28;20132;-72
2023/01/25 07:58:07;;;;;;;45.47;30.83;;;3.10;99.10;;;;;;5031455;28;20490;-72
2023/01/25 08:00:32;;;;;;;45.17;30.48;;;3.00;98.90;;;;;;4999550;28;20042;-72
2023/01/25 08:02:58;;;;;;;41.78;29.10;;;2.90;99.00;;;;;;5033238;28;20485;-71
2023/01/25 08:05:24;;;;;;;44.15;30.27;;;3.00;99.50;;;;;;5032507;28;20037;-71
2023/01/25 08:07:50;;;;;;;47.70;32.22;;;3.00;99.90;;;;;;5015070;28;20025;-77
2023/01/25 08:10:15;;;;;;;38.50;27.48;;;3.10;99.90;;;;;;5032730;28;20513;-72
2023/01/25 08:12:45;;;;;;;47.35;32.47;;;3.10;99.90;;;;;;5032035;28;20038;-75
2023/01/25 08:15:11;;;;;;;43.65;28.15;;;3.20;99.90;;;;;;5031316;28;20386;-76
2023/01/25 08:17:37;;;;;;;43.92;30.90;;;3.30;99.90;;;;;;5031565;28;20033;-74
2023/01/25 08:20:03;;;;;;;46.58;32.80;;;3.50;99.90;;;;;;5014881;28;20037;-75
2023/01/25 08:22:29;;;;;;;47.17;31.98;;;3.60;99.90;;;;;;5015061;28;20026;-76
2023/01/25 08:24:55;;;;;;;42.90;30.90;;;3.70;99.90;;;;;;5014798;28;20034;-75
2023/01/25 08:27:21;;;;;;;42.20;29.30;;;3.80;99.90;;;;;;5032481;28;20569;-75
2023/01/25 08:29:49;;;;;;;42.92;30.15;;;3.90;99.90;;;;;;5031113;28;20061;-76
2023/01/25 08:32:15;;;;;;;41.05;30.27;;;4.00;99.90;;;;;;5031210;28;20032;-74
2023/01/25 08:34:41;;;;;;;42.42;30.00;;;4.00;99.90;;;;;;5031454;28;20061;-72
2023/01/25 08:37:06;;;;;;;47.65;31.80;;;4.00;99.70;;;;;;5035170;28;20034;-74
2023/01/25 08:39:32;;;;;;;44.38;31.58;;;3.90;99.40;;;;;;5036754;28;20033;-70
2023/01/25 08:41:58;;;;;;;44.90;30.98;;;3.80;99.20;;;;;;5037040;28;20034;-70
2023/01/25 08:44:24;;;;;;;45.45;32.30;;;3.80;99.40;;;;;;5037790;28;20034;-75
2023/01/25 08:46:50;;;;;;;41.10;29.05;;;3.80;99.50;;;;;;5037451;28;20038;-75
2023/01/25 08:49:16;;;;;;;44.08;30.60;;;3.80;99.60;;;;;;5037149;28;20084;-75
2023/01/25 08:51:42;;;;;;;42.38;31.30;;;3.90;99.90;;;;;;5036089;28;20030;-75
2023/01/25 08:54:11;;;;;;;48.80;34.63;;;3.90;99.50;;;;;;5019008;28;20041;-75
2023/01/25 08:56:40;;;;;;;48.72;33.95;;;3.90;99.10;;;;;;5036008;28;20128;-71
2023/01/25 08:59:07;;;;;;;46.47;33.65;;;3.70;98.80;;;;;;5036032;28;20029;-71
2023/01/25 09:01:33;;;;;;;45.47;30.40;;;3.70;99.60;;;;;;5036419;28;20033;-70
2023/01/25 09:03:58;;;;;;;46.47;32.78;;;3.80;99.90;;;;;;5035009;28;20025;-72
2023/01/25 09:06:24;;;;;;;44.30;31.42;;;3.80;99.60;;;;;;5035980;28;20049;-70
2023/01/25 09:08:50;;;;;;;45.10;30.40;;;3.90;99.60;;;;;;5034709;28;20041;-70
2023/01/25 09:11:19;;;;;;;47.75;32.88;;;4.00;99.90;;;;;;5036191;28;20385;-70
2023/01/25 09:13:47;;;;;;;44.70;31.38;;;4.10;98.70;;;;;;5036201;28;20108;-70
2023/01/25 09:16:15;;;;;;;44.90;31.30;;;4.00;98.50;;;;;;5035895;28;20116;-69
2023/01/25 09:18:43;;;;;;;41.22;29.13;;;3.90;98.80;;;;;;5036336;28;20417;-72
2023/01/25 09:21:15;;;;;;;44.70;31.30;;;4.00;99.30;;;;;;5034792;28;20033;-72
2023/01/25 09:23:43;;;;;;;45.00;30.55;;;4.10;99.50;;;;;;5036089;28;20053;-73
2023/01/25 09:26:09;;;;;;;49.17;33.33;;;4.10;99.30;;;;;;5034909;28;20033;-72
2023/01/25 09:28:35;;;;;;;46.10;31.63;;;4.10;99.20;;;;;;5035621;28;20057;-72
2023/01/25 09:31:04;;;;;;;49.83;33.33;;;4.10;99.10;;;;;;5034886;28;20433;-71
2023/01/25 09:33:33;;;;;;;45.25;32.15;;;4.20;99.00;;;;;;5033924;28;20033;-71
2023/01/25 09:35:59;;;;;;;49.15;33.67;;;4.20;98.30;;;;;;5033777;28;20033;-72
2023/01/25 09:38:25;;;;;;;36.75;26.70;;;4.10;97.90;;;;;;5018449;28;20033;-77
2023/01/25 09:41:12;;;;;;;48.97;33.17;;;4.10;98.40;;;;;;5035194;28;20032;-77
2023/01/25 09:44:17;;;;;;;49.70;35.50;;;4.10;98.90;;;;;;5035989;28;20097;-76
2023/01/25 09:46:48;;;;;;;48.33;33.15;;;4.00;98.30;;;;;;5033983;28;20030;-72
2023/01/25 09:49:48;;;;;;;47.08;31.80;;;4.00;98.50;;;;;;5035609;28;20486;-73
2023/01/25 09:52:33;;;;;;;51.55;34.80;;;4.10;98.50;;;;;;5035512;28;20021;-72
2023/01/25 09:54:58;;;;;;;52.35;35.38;;;4.10;98.40;;;;;;5036285;28;20018;-72
2023/01/25 09:57:26;;;;;;;41.53;29.70;;;4.10;98.00;;;;;;5035376;28;20054;-72
2023/01/25 09:59:53;;;;;;;46.42;32.63;;;4.10;98.20;;;;;;5035494;28;20033;-71
2023/01/25 10:02:40;;;;;;;48.88;33.38;;;4.10;98.30;;;;;;5035350;28;20029;-72
2023/01/25 10:05:17;;;;;;;48.50;32.13;;;4.20;98.20;;;;;;5035276;28;20044;-72
2023/01/25 10:08:01;;;;;;;50.28;34.50;;;4.30;98.40;;;;;;5035479;28;20064;-73
2023/01/25 10:10:34;;;;;;;52.00;35.35;;;4.40;98.40;;;;;;5034959;28;20036;-71
2023/01/25 10:13:01;;;;;;;47.13;32.90;;;4.30;98.00;;;;;;5035447;28;20026;-71
2023/01/25 10:15:32;;;;;;;49.92;33.53;;;4.30;98.00;;;;;;5033748;28;20067;-71
2023/01/25 10:18:07;;;;;;;51.60;33.67;;;4.30;98.20;;;;;;5035166;28;20033;-70
2023/01/25 10:20:37;;;;;;;52.75;36.55;;;4.40;98.10;;;;;;5035332;28;20025;-71
2023/01/25 10:23:13;;;;;;;48.85;33.90;;;4.20;97.60;;;;;;5035489;28;20040;-72
2023/01/25 10:25:53;;;;;;;53.83;36.13;;;4.20;97.70;;;;;;5035114;28;20037;-72
2023/01/25 10:28:32;;;;;;;46.97;32.47;;;4.20;97.80;;;;;;5038087;28;20121;-71
2023/01/25 10:31:17;;;;;;;49.35;33.03;;;4.20;97.90;;;;;;5037583;28;20026;-73
2023/01/25 10:33:44;;;;;;;49.35;33.47;;;4.10;97.90;;;;;;5041674;28;20033;-72
2023/01/25 10:36:22;;;;;;;47.40;31.40;;;4.10;97.80;;;;;;5019411;28;20474;-72
2023/01/25 10:38:48;;;;;;;52.08;35.10;;;4.10;97.70;;;;;;5034927;28;20028;-70
2023/01/25 10:41:25;;;;;;;51.42;33.95;;;4.00;97.60;;;;;;5033558;28;20026;-71
2023/01/25 10:44:20;;;;;;;52.55;34.78;;;3.90;98.00;;;;;;5034697;28;20018;-70
2023/01/25 10:46:45;;;;;;;49.60;33.38;;;3.90;98.10;;;;;;5034204;28;20044;-71
2023/01/25 10:49:19;;;;;;;53.78;35.00;;;3.90;98.00;;;;;;5034337;28;20136;-71
2023/01/25 10:51:45;;;;;;;52.30;34.25;;;4.00;98.10;;;;;;5034167;28;20438;-71
2023/01/25 10:54:14;;;;;;;54.45;34.28;;;4.00;98.30;;;;;;5033276;28;20045;-71
2023/01/25 10:56:42;;;;;;;46.83;30.17;;;4.10;98.30;;;;;;5033630;28;20556;-71
2023/01/25 10:59:24;;;;;;;50.10;32.83;;;4.10;98.40;;;;;;5031768;28;20033;-72
2023/01/25 11:01:50;;;;;;;52.95;34.45;;;4.20;98.60;;;;;;5032959;28;20033;-71
2023/01/25 11:04:30;;;;;;;51.45;33.40;;;4.20;98.40;;;;;;5032802;28;20037;-72
2023/01/25 11:06:56;;;;;;;47.50;31.88;;;4.20;98.20;;;;;;5032851;28;20466;-72
2023/01/25 11:09:29;;;;;;;47.33;32.50;;;4.30;97.90;;;;;;5034063;28;20033;-72
2023/01/25 11:12:04;;;;;;;53.33;35.80;;;4.30;97.80;;;;;;5033749;28;20344;-72
2023/01/25 11:14:32;;;;;;;55.83;36.28;;;4.30;97.50;;;;;;5032942;28;20037;-72
2023/01/25 11:17:00;;;;;;;52.72;35.25;;;4.10;97.20;;;;;;5033664;28;20176;-72
2023/01/25 11:19:37;;;;;;;46.00;30.48;;;4.00;97.50;;;;;;5034095;28;20075;-70
2023/01/25 11:22:18;;;;;;;51.42;34.38;;;4.00;98.30;;;;;;5032865;28;20029;-72
2023/01/25 11:24:44;;;;;;;57.70;37.50;;;4.10;98.10;;;;;;5032716;28;20041;-72
2023/01/25 11:27:11;;;;;;;55.88;36.97;;;4.00;97.90;;;;;;5033482;28;20073;-72
2023/01/25 11:29:37;;;;;;;53.30;35.22;;;3.90;97.90;;;;;;5031966;28;20061;-73
2023/01/25 11:32:21;;;;;;;55.60;36.20;;;3.90;98.20;;;;;;5032278;28;20037;-72
2023/01/25 11:34:49;;;;;;;58.55;38.35;;;3.90;97.90;;;;;;5032002;28;20075;-72
2023/01/25 11:37:23;;;;;;;51.63;35.65;;;3.80;98.10;;;;;;5033034;28;20471;-72
2023/01/25 11:40:24;;;;;;;53.75;34.63;;;3.90;98.20;;;;;;5031720;28;20029;-75
2023/01/25 11:43:02;;;;;;;50.10;33.83;;;4.00;98.40;;;;;;5010375;28;20038;-73
2023/01/25 11:45:50;;;;;;;60.50;37.00;;;4.10;98.60;;;;;;5033538;28;20079;-72
2023/01/25 11:48:42;;;;;;;58.47;37.00;;;4.20;98.40;;;;;;5034424;28;20076;-77
2023/01/25 11:51:25;;;;;;;55.22;36.13;;;4.30;97.90;;;;;;5034404;28;20025;-77
2023/01/25 11:54:15;;;;;;;56.33;36.53;;;4.30;97.60;;;;;;5034750;28;20493;-76
2023/01/25 11:56:48;;;;;;;55.78;36.03;;;4.30;97.50;;;;;;5032379;28;20034;-77
2023/01/25 11:59:39;;;;;;;58.97;38.05;;;4.30;97.80;;;;;;5033582;28;20021;-77
2023/01/25 12:02:24;;;;;;;58.28;35.92;;;4.30;97.90;;;;;;5033953;28;20484;-77
2023/01/25 12:04:56;;;;;;;59.75;38.13;;;4.40;98.20;;;;;;5032843;28;20033;-77
2023/01/25 12:07:39;;;;;;;63.30;41.13;;;4.40;98.10;;;;;;5031770;28;20033;-78
2023/01/25 12:10:11;;;;;;;;;;;4.50;97.80;;;;;;5033390;28;20029;-78
2023/01/25 12:12:44;;;;;;;58.63;36.47;;;4.50;97.90;;;;;;5034341;28;19905;-77
2023/01/25 12:15:21;;;;;;;59.95;39.55;;;4.50;97.70;;;;;;5034102;28;20075;-77
2023/01/25 12:18:05;;;;;;;61.33;39.40;;;4.50;97.50;;;;;;5032914;28;20029;-73
2023/01/25 12:20:40;;;;;;;61.17;39.63;;;4.40;97.60;;;;;;5032992;28;20045;-75
2023/01/25 12:23:24;;;;;;;61.38;39.47;;;4.40;97.60;;;;;;5031694;28;20056;-77
2023/01/25 12:25:55;;;;;;;58.53;37.28;;;4.40;97.50;;;;;;5032367;28;20133;-76
2023/01/25 12:28:45;;;;;;;62.28;39.83;;;4.40;97.50;;;;;;5031816;28;20053;-74
2023/01/25 12:31:17;;;;;;;62.13;39.90;;;4.30;97.50;;;;;;5032864;28;20055;-76
2023/01/25 12:33:48;;;;;;;58.80;38.53;;;4.20;97.80;;;;;;5031695;28;20045;-74
2023/01/25 12:36:20;;;;;;;62.03;39.15;;;4.10;97.90;;;;;;5032704;28;20077;-76
2023/01/25 12:39:10;;;;;;;61.70;39.92;;;4.20;98.10;;;;;;5033350;28;20060;-77
2023/01/25 12:41:45;;;;;;;63.78;40.08;;;4.20;97.90;;;;;;5033074;28;20412;-76
2023/01/25 12:44:24;;;;;;;64.35;39.70;;;4.10;98.00;;;;;;5031578;28;20041;-76
2023/01/25 12:46:55;;;;;;;67.53;41.25;;;4.10;98.10;;;;;;5032269;28;20094;-76
2023/01/25 12:50:03;;;;;;;59.00;39.22;;;4.10;98.10;;;;;;5031328;28;20029;-76
2023/01/25 12:52:33;;;;;;;67.32;42.40;;;4.10;98.10;;;;;;5010734;28;20430;-74
2023/01/25 12:55:11;;;;;;;64.30;40.13;;;4.00;98.10;;;;;;5010901;28;20467;-76